Time;durP1;ratioP1;P1;durP2;ratioP2;P2;SDS_P1;SDS_P2;PMS_P1;PMS_P2;Temp;Humidity;BMP_temperature;BMP_pressure;BME280_temperature;BME280_humidity;BME280_pressure;Samples;Min_cycle;Max_cycle;Signal;HPM_P1;HPM_P2
2023/01/11 00:01:28;;;;;;;8.37;7.87;;;;;;;3.31;83.22;92157.72;5092525;28;20197;-77
2023/01/11 00:03:53;;;;;;;7.97;7.73;;;;;;;3.21;82.83;92155.84;5092414;28;20238;-77
2023/01/11 00:06:18;;;;;;;9.60;9.20;;;;;;;2.92;84.05;92117.69;5092668;28;20252;-77
2023/01/11 00:08:44;;;;;;;9.97;9.50;;;;;;;3.22;82.92;92165.13;5092429;28;20203;-77
2023/01/11 00:11:15;;;;;;;9.00;8.60;;;;;;;3.05;85.23;92148.97;5092075;28;20295;-78
2023/01/11 00:13:41;;;;;;;9.00;8.70;;;;;;;3.15;85.13;92167.13;5091656;28;20184;-78
2023/01/11 00:16:08;;;;;;;9.93;9.53;;;;;;;3.32;83.59;92174.75;5125231;27;20688;-76
2023/01/11 00:18:33;;;;;;;8.47;8.17;;;;;;;3.16;85.46;92170.47;5092172;28;20200;-77
2023/01/11 00:21:04;;;;;;;9.10;8.80;;;;;;;3.18;84.18;92173.59;5092053;28;20229;-76
2023/01/11 00:23:29;;;;;;;8.60;8.30;;;;;;;3.24;84.36;92182.94;5092336;28;20188;-78
2023/01/11 00:25:55;;;;;;;8.57;8.27;;;;;;;3.17;84.05;92172.06;5092697;28;20279;-77
2023/01/11 00:28:20;;;;;;;9.93;9.53;;;;;;;3.09;85.01;92167.34;5092155;28;20317;-79
2023/01/11 00:30:47;;;;;;;9.27;8.87;;;;;;;3.23;84.65;92189.91;5089830;28;20247;-77
2023/01/11 00:33:13;;;;;;;8.07;7.77;;;;;;;2.93;87.84;92173.34;5089772;28;20224;-77
2023/01/11 00:35:38;;;;;;;9.73;9.33;;;;;;;2.92;91.68;92189.84;5093381;28;20224;-77
2023/01/11 00:38:03;;;;;;;10.63;9.93;;;;;;;2.81;92.48;92185.59;5092231;28;20180;-77
2023/01/11 00:40:29;;;;;;;10.20;9.60;;;;;;;2.80;93.55;92184.81;5091043;28;20221;-77
2023/01/11 00:48:43;;;;;;;10.43;9.73;;;;;;;2.68;98.10;92183.41;5068007;28;20191;-77
2023/01/11 00:51:08;;;;;;;11.23;10.27;;;;;;;2.54;98.70;92164.16;5066841;28;20248;-78
2023/01/11 00:53:33;;;;;;;11.03;10.37;;;;;;;2.66;100.00;92193.94;5067411;28;20197;-78
2023/01/11 00:55:59;;;;;;;10.27;9.77;;;;;;;2.39;100.00;92166.56;5091445;28;20236;-77
2023/01/11 00:58:24;;;;;;;11.17;10.37;;;;;;;2.55;100.00;92184.53;5091752;28;20184;-77
2023/01/11 01:00:49;;;;;;;10.93;10.27;;;;;;;2.54;100.00;92188.16;5091313;28;20232;-82
2023/01/11 01:03:15;;;;;;;11.20;10.50;;;;;;;2.44;100.00;92187.25;5107301;28;20192;-77
2023/01/11 01:05:40;;;;;;;11.90;11.10;;;;;;;2.40;100.00;92184.38;5090728;28;20232;-77
2023/01/11 01:08:06;;;;;;;11.40;10.80;;;;;;;2.53;100.00;92181.44;5095274;28;20210;-77
2023/01/11 01:10:31;;;;;;;9.90;9.40;;;;;;;2.30;100.00;92183.47;5091218;28;20223;-77
2023/01/11 01:15:41;;;;;;;12.03;11.17;;;;;;;1.99;100.00;92194.38;5091335;28;20227;-76
2023/01/11 01:18:07;;;;;;;12.13;11.23;;;;;;;1.93;100.00;92170.38;5090160;28;20189;-77
2023/01/11 01:20:33;;;;;;;11.23;10.43;;;;;;;2.07;100.00;92199.13;5091228;28;20433;-77
2023/01/11 01:22:58;;;;;;;11.80;11.17;;;;;;;2.04;100.00;92209.91;5092207;28;20242;-77
2023/01/11 01:25:24;;;;;;;12.97;12.17;;;;;;;2.07;100.00;92201.72;5092767;28;20220;-77
2023/01/11 01:27:50;;;;;;;11.50;10.83;;;;;;;2.16;100.00;92205.44;5092620;28;20181;-77
2023/01/11 01:30:15;;;;;;;12.23;11.30;;;;;;;2.13;100.00;92195.59;5090205;28;20225;-77
2023/01/11 01:32:41;;;;;;;13.40;12.33;;;;;;;1.87;100.00;92186.00;5088757;28;20213;-77
2023/01/11 01:35:07;;;;;;;13.33;11.20;;;;;;;1.77;100.00;92201.28;5090248;28;20229;-78
2023/01/11 01:37:32;;;;;;;11.23;10.43;;;;;;;1.83;100.00;92206.25;5105595;28;20177;-77
2023/01/11 01:39:58;;;;;;;11.23;10.40;;;;;;;1.74;100.00;92212.81;5091231;28;20233;-77
2023/01/11 01:42:24;;;;;;;12.13;11.43;;;;;;;1.72;100.00;92211.47;5091173;28;20240;-76
2023/01/11 01:45:06;;;;;;;12.97;12.07;;;;;;;1.92;100.00;92206.63;5089168;28;20235;-78
2023/01/11 01:47:49;;;;;;;11.97;11.07;;;;;;;1.66;100.00;92205.50;5090357;28;20224;-78
2023/01/11 01:50:19;;;;;;;12.67;11.87;;;;;;;1.82;100.00;92214.22;5088194;28;20234;-78
2023/01/11 01:52:49;;;;;;;12.23;11.53;;;;;;;1.65;100.00;92204.72;5090339;28;20232;-77
2023/01/11 01:55:22;;;;;;;12.93;11.93;;;;;;;1.59;100.00;92200.50;5089046;28;20224;-77
2023/01/11 01:57:49;;;;;;;12.80;11.90;;;;;;;1.40;100.00;92176.03;5089855;28;20181;-78
2023/01/11 02:00:15;;;;;;;13.07;11.93;;;;;;;1.29;100.00;92163.25;5090403;28;20228;-78
2023/01/11 02:02:42;;;;;;;12.63;11.73;;;;;;;1.45;100.00;92209.53;5090454;28;20275;-78
2023/01/11 02:05:09;;;;;;;12.20;11.53;;;;;;;1.49;100.00;92208.06;5089880;28;20221;-77
2023/01/11 02:07:38;;;;;;;13.03;12.33;;;;;;;1.53;100.00;92201.44;5090225;28;20204;-77
2023/01/11 02:10:06;;;;;;;11.77;10.97;;;;;;;1.67;100.00;92225.06;5089280;28;20702;-77
2023/01/11 02:12:39;;;;;;;12.53;11.57;;;;;;;1.40;100.00;92217.16;5090555;28;20246;-77
2023/01/11 02:15:06;;;;;;;12.07;11.07;;;;;;;1.26;100.00;92203.06;5089532;28;20229;-77
2023/01/11 02:17:31;;;;;;;12.43;11.63;;;;;;;1.44;100.00;92223.41;5090703;28;20181;-77
2023/01/11 02:20:03;;;;;;;13.83;12.87;;;;;;;1.32;100.00;92230.41;5090820;28;20282;-77
2023/01/11 02:22:46;;;;;;;12.10;11.10;;;;;;;1.61;100.00;92239.63;5089083;28;20201;-77
2023/01/11 02:25:25;;;;;;;13.87;12.87;;;;;;;1.62;100.00;92238.63;5089149;28;20224;-76
2023/01/11 02:28:02;;;;;;;16.13;14.73;;;;;;;1.67;100.00;92256.72;5089539;28;20180;-78
2023/01/11 02:30:37;;;;;;;13.50;12.40;;;;;;;1.67;100.00;92243.84;5088235;28;20220;-77
2023/01/11 02:33:11;;;;;;;12.83;12.00;;;;;;;1.81;100.00;92267.47;5091106;28;20211;-78
2023/01/11 02:35:58;;;;;;;13.07;12.10;;;;;;;1.76;100.00;92262.22;5088341;28;20286;-77
2023/01/11 02:38:32;;;;;;;12.67;11.67;;;;;;;1.90;100.00;92273.00;5089856;28;20248;-77
2023/01/11 02:41:16;;;;;;;12.60;11.70;;;;;;;1.90;100.00;92273.00;5088758;28;20223;-77
2023/01/11 02:46:56;;;;;;;12.73;11.93;;;;;;;1.75;100.00;92250.41;5068573;28;20196;-78
2023/01/11 02:49:56;;;;;;;12.23;11.43;;;;;;;1.70;100.00;92264.97;5068625;28;20923;-78
2023/01/11 02:52:51;;;;;;;12.83;12.03;;;;;;;1.72;100.00;92268.09;5069224;28;20217;-78
2023/01/11 02:55:22;;;;;;;12.30;11.50;;;;;;;1.76;100.00;92271.75;5080452;28;20224;-78
2023/01/11 02:57:50;;;;;;;13.13;12.23;;;;;;;2.10;100.00;92291.34;5089830;28;20759;-77
2023/01/11 03:00:17;;;;;;;12.93;12.03;;;;;;;1.95;100.00;92291.09;5088789;28;20212;-78
2023/01/11 03:02:43;;;;;;;11.23;10.60;;;;;;;2.10;100.00;92299.81;5090678;28;21135;-77
2023/01/11 03:05:13;;;;;;;11.67;10.97;;;;;;;2.03;100.00;92288.91;5088475;28;20232;-76
2023/01/11 03:07:51;;;;;;;11.63;10.93;;;;;;;1.99;100.00;92287.03;5088953;28;20177;-75
2023/01/11 03:10:44;;;;;;;11.00;10.47;;;;;;;1.95;100.00;92293.66;5088872;28;20270;-75
2023/01/11 03:13:20;;;;;;;12.40;11.60;;;;;;;1.71;100.00;92277.63;5089555;28;20698;-76
2023/01/11 03:16:03;;;;;;;12.20;11.47;;;;;;;1.82;100.00;92286.28;5088812;28;20258;-75
2023/01/11 03:18:47;;;;;;;13.10;12.30;;;;;;;1.97;100.00;92266.69;5089414;28;20193;-74
2023/01/11 03:21:22;;;;;;;12.00;11.30;;;;;;;2.01;100.00;92279.88;5087181;28;20211;-76
2023/01/11 03:24:11;;;;;;;11.63;10.83;;;;;;;2.21;100.00;92282.75;5088044;28;20191;-75
2023/01/11 03:27:04;;;;;;;12.50;11.50;;;;;;;2.05;100.00;92256.00;5056201;28;20208;-74
2023/01/11 03:29:38;;;;;;;12.27;11.57;;;;;;;2.04;100.00;92284.56;5089278;28;20252;-75
2023/01/11 03:32:15;;;;;;;12.80;12.00;;;;;;;1.94;100.00;92248.34;5104068;28;20784;-75
2023/01/11 03:34:47;;;;;;;12.97;12.23;;;;;;;2.03;100.00;92278.63;5089499;28;20224;-75
2023/01/11 03:37:30;;;;;;;12.07;11.23;;;;;;;2.09;100.00;92257.09;5087630;28;20180;-75
2023/01/11 03:40:07;;;;;;;13.10;12.20;;;;;;;2.12;100.00;92279.03;5088389;28;20220;-75
2023/01/11 03:43:09;;;;;;;11.77;10.93;;;;;;;2.18;100.00;92270.34;5089203;28;20196;-75
2023/01/11 03:45:22;;;;;;;13.03;12.13;;;;;;;2.26;100.00;92283.59;5089657;28;20210;-75
2023/01/11 03:47:48;;;;;;;13.07;12.07;;;;;;;2.29;100.00;92277.22;5087876;28;20196;-75
2023/01/11 03:50:15;;;;;;;11.83;11.13;;;;;;;2.18;100.00;92278.84;5088283;28;20255;-75
2023/01/11 03:52:42;;;;;;;13.20;12.23;;;;;;;2.20;100.00;92283.75;5089253;28;20216;-74
2023/01/11 03:55:11;;;;;;;12.93;12.13;;;;;;;2.02;100.00;92276.28;5089253;28;20220;-75
2023/01/11 03:57:41;;;;;;;12.53;11.53;;;;;;;2.16;100.00;92287.81;5088238;28;20268;-74
2023/01/11 04:00:08;;;;;;;12.67;11.77;;;;;;;2.11;100.00;92300.59;5090332;28;20248;-76
2023/01/11 04:02:40;;;;;;;13.37;12.30;;;;;;;2.22;100.00;92295.38;5086860;28;20207;-75
2023/01/11 04:05:08;;;;;;;11.70;11.00;;;;;;;2.22;100.00;92302.31;5089327;28;20238;-75
2023/01/11 04:07:33;;;;;;;13.30;12.40;;;;;;;2.23;100.00;92309.03;5088325;28;20188;-75
2023/01/11 04:09:59;;;;;;;12.33;11.53;;;;;;;2.02;100.00;92302.03;5088007;28;20242;-75
2023/01/11 04:12:25;;;;;;;12.27;11.40;;;;;;;1.98;100.00;92298.38;5087904;28;20221;-75
2023/01/11 04:14:50;;;;;;;12.53;11.60;;;;;;;1.96;100.00;92310.69;5087594;28;20250;-74
2023/01/11 04:17:15;;;;;;;14.80;13.60;;;;;;;1.70;100.00;92309.47;5088445;28;20205;-74
2023/01/11 04:19:41;;;;;;;14.33;13.33;;;;;;;1.55;100.00;92311.81;5089534;28;20238;-75
2023/01/11 04:22:06;;;;;;;14.50;13.20;;;;;;;1.82;100.00;92324.88;5088162;28;20204;-75
2023/01/11 04:24:32;;;;;;;14.97;13.57;;;;;;;1.93;100.00;92303.44;5088367;28;20228;-75
2023/01/11 04:26:57;;;;;;;14.70;13.50;;;;;;;2.07;100.00;92309.84;5088438;28;20180;-74
2023/01/11 04:29:22;;;;;;;14.70;13.50;;;;;;;1.78;100.00;92308.31;5088083;28;20221;-73
2023/01/11 04:31:48;;;;;;;14.97;13.77;;;;;;;1.94;100.00;92326.34;5088677;28;20212;-74
2023/01/11 04:34:13;;;;;;;15.00;13.73;;;;;;;1.91;100.00;92328.59;5088195;28;20232;-72
2023/01/11 04:36:38;;;;;;;15.13;13.90;;;;;;;1.85;100.00;92330.34;5088200;28;20226;-72
2023/01/11 04:39:05;;;;;;;16.30;14.90;;;;;;;1.86;100.00;92328.53;5087092;28;20201;-76
2023/01/11 04:44:16;;;;;;;12.87;11.77;;;;;;;1.92;100.00;92332.72;5071363;28;20216;-74
2023/01/11 04:46:41;;;;;;;12.47;11.73;;;;;;;2.10;100.00;92350.53;5091551;28;20307;-70
2023/01/11 04:49:07;;;;;;;12.03;11.33;;;;;;;2.10;100.00;92342.81;5090887;28;20270;-72
2023/01/11 04:51:32;;;;;;;13.00;12.03;;;;;;;2.09;100.00;92348.97;5090990;28;20220;-72
2023/01/11 04:53:57;;;;;;;11.73;11.07;;;;;;;1.79;100.00;92333.06;5088518;28;20234;-71
2023/01/11 04:56:23;;;;;;;11.50;10.90;;;;;;;2.03;100.00;92344.75;5091094;28;20189;-72
2023/01/11 04:58:48;;;;;;;10.40;9.90;;;;;;;2.05;100.00;92353.03;5091139;28;20223;-71
2023/01/11 05:01:17;;;;;;;9.70;9.20;;;;;;;2.19;100.00;92359.44;5091107;28;20906;-73
2023/01/11 05:03:44;;;;;;;10.50;9.80;;;;;;;2.14;100.00;92361.94;5092525;28;20208;-70
2023/01/11 05:06:10;;;;;;;10.27;9.63;;;;;;;1.90;100.00;92365.66;5091457;28;20270;-70
2023/01/11 05:08:35;;;;;;;11.07;10.57;;;;;;;1.87;100.00;92356.59;5091134;28;20265;-73
2023/01/11 05:11:04;;;;;;;9.90;9.23;;;;;;;1.92;100.00;92363.63;5090411;28;20213;-73
2023/01/11 05:13:42;;;;;;;10.43;9.83;;;;;;;1.91;100.00;92372.38;5091449;28;20248;-75
2023/01/11 05:16:22;;;;;;;10.63;10.13;;;;;;;1.96;100.00;92370.63;5093731;28;20211;-74
2023/01/11 05:18:50;;;;;;;10.93;10.43;;;;;;;1.94;100.00;92374.47;5088417;28;20183;-79
2023/01/11 05:21:18;;;;;;;10.23;9.60;;;;;;;1.89;100.00;92377.75;5089763;28;20188;-78
2023/01/11 05:23:44;;;;;;;10.20;9.70;;;;;;;2.09;100.00;92380.66;5089453;28;20215;-80
2023/01/11 05:26:18;;;;;;;11.50;10.70;;;;;;;1.88;100.00;92368.47;5090750;28;20221;-78
2023/01/11 05:28:45;;;;;;;12.63;11.87;;;;;;;1.89;100.00;92371.81;5089600;28;20238;-76
2023/01/11 05:31:11;;;;;;;10.30;9.67;;;;;;;2.02;100.00;92368.94;5089167;28;20303;-75
2023/01/11 05:33:36;;;;;;;11.07;10.37;;;;;;;1.97;100.00;92376.56;5090120;28;20200;-76
2023/01/11 05:36:09;;;;;;;11.50;10.80;;;;;;;1.99;100.00;92372.78;5088822;28;20219;-75
2023/01/11 05:38:34;;;;;;;11.47;10.77;;;;;;;2.02;100.00;92369.75;5088194;28;20252;-76
2023/01/11 05:41:03;;;;;;;11.27;10.57;;;;;;;2.05;100.00;92383.94;5088804;28;20250;-76
2023/01/11 05:43:30;;;;;;;11.70;10.97;;;;;;;1.92;100.00;92379.84;5090003;28;20197;-76
2023/01/11 05:45:56;;;;;;;11.57;10.83;;;;;;;1.98;100.00;92391.03;5090541;28;20212;-76
2023/01/11 05:48:22;;;;;;;10.27;9.67;;;;;;;1.96;100.00;92396.38;5088502;28;20184;-76
2023/01/11 05:50:52;;;;;;;11.37;10.77;;;;;;;2.00;100.00;92396.69;5089752;28;20224;-75
2023/01/11 05:53:18;;;;;;;13.30;12.60;;;;;;;2.02;100.00;92387.75;5086499;28;20315;-76
2023/01/11 05:55:57;;;;;;;11.97;11.27;;;;;;;1.93;100.00;92396.09;5088346;28;20213;-76
2023/01/11 05:58:25;;;;;;;12.23;11.43;;;;;;;1.80;100.00;92404.06;5086682;28;20191;-75
2023/01/11 06:00:52;;;;;;;11.57;10.87;;;;;;;1.86;100.00;92400.56;5089390;28;20216;-75
2023/01/11 06:03:18;;;;;;;11.53;10.57;;;;;;;1.95;100.00;92394.03;5088734;28;20172;-75
2023/01/11 06:05:44;;;;;;;10.97;10.37;;;;;;;1.95;100.00;92396.59;5089124;28;20229;-75
2023/01/11 06:08:10;;;;;;;11.20;10.50;;;;;;;1.69;100.00;92392.81;5087734;28;20194;-75
2023/01/11 06:10:35;;;;;;;10.90;10.20;;;;;;;1.58;100.00;92398.78;5088694;28;20220;-75
2023/01/11 06:15:44;;;;;;;12.23;11.43;;;;;;;1.81;100.00;92418.50;5088392;28;20278;-77
2023/01/11 06:18:10;;;;;;;11.90;11.13;;;;;;;1.92;100.00;92421.03;5089494;28;20193;-75
2023/01/11 06:20:35;;;;;;;12.40;11.50;;;;;;;1.87;100.00;92433.03;5088481;28;20244;-75
2023/01/11 06:23:01;;;;;;;13.40;12.33;;;;;;;1.95;100.00;92441.16;5086938;28;20200;-75
2023/01/11 06:25:27;;;;;;;13.83;12.83;;;;;;;1.86;100.00;92428.88;5086623;28;20250;-75
2023/01/11 06:27:52;;;;;;;13.00;12.10;;;;;;;1.92;100.00;92440.81;5088420;28;20196;-74
2023/01/11 06:30:19;;;;;;;14.23;13.23;;;;;;;2.02;100.00;92452.09;5088633;28;20253;-75
2023/01/11 06:32:45;;;;;;;14.27;13.07;;;;;;;2.10;100.00;92456.09;5088653;28;20196;-75
2023/01/11 06:35:10;;;;;;;12.80;11.80;;;;;;;2.18;100.00;92460.88;5088908;28;20232;-74
2023/01/11 06:37:36;;;;;;;13.87;12.77;;;;;;;2.24;100.00;92468.44;5087348;28;20212;-73
2023/01/11 06:40:01;;;;;;;27.47;25.67;;;;;;;2.24;100.00;92445.25;5086378;28;20696;-74
2023/01/11 06:42:26;;;;;;;13.10;12.10;;;;;;;2.29;100.00;92463.38;5088882;28;20947;-74
2023/01/11 06:44:52;;;;;;;14.13;12.87;;;;;;;2.28;100.00;92458.47;5088108;28;20232;-74
2023/01/11 06:47:17;;;;;;;17.40;15.60;;;;;;;1.99;100.00;92395.16;5088719;28;20211;-75
2023/01/11 06:49:42;;;;;;;13.83;12.73;;;;;;;2.53;100.00;92458.88;5088984;28;20223;-75
2023/01/11 06:52:08;;;;;;;13.63;12.63;;;;;;;2.61;100.00;92461.88;5087447;28;20220;-74
2023/01/11 06:54:33;;;;;;;12.47;11.60;;;;;;;2.67;100.00;92467.88;5087162;28;20244;-76
2023/01/11 06:56:58;;;;;;;13.57;12.57;;;;;;;2.58;100.00;92453.81;5086984;28;20204;-74
2023/01/11 06:59:24;;;;;;;13.03;12.13;;;;;;;2.69;100.00;92458.13;5089354;28;20224;-79
2023/01/11 07:01:49;;;;;;;11.90;11.00;;;;;;;2.54;100.00;92439.81;5089168;28;21047;-75
2023/01/11 07:04:16;;;;;;;12.67;11.77;;;;;;;2.91;100.00;92482.19;5087355;28;20251;-75
2023/01/11 07:06:41;;;;;;;14.13;13.13;;;;;;;3.07;100.00;92486.50;5081405;28;20196;-77
2023/01/11 07:09:06;;;;;;;14.07;12.87;;;;;;;3.21;100.00;92493.69;5088064;28;20233;-77
2023/01/11 07:11:33;;;;;;;12.57;11.57;;;;;;;2.97;98.12;92507.78;5087535;28;20201;-75
2023/01/11 07:13:59;;;;;;;12.43;11.60;;;;;;;3.31;98.22;92511.13;5085041;28;20284;-76
2023/01/11 07:16:24;;;;;;;11.90;11.10;;;;;;;3.35;97.08;92496.72;5088528;28;20185;-76
2023/01/11 07:18:49;;;;;;;11.87;11.13;;;;;;;3.62;98.00;92520.84;5086832;28;20257;-76
2023/01/11 07:21:15;;;;;;;12.27;11.53;;;;;;;3.73;95.22;92522.53;5084456;28;20185;-76
2023/01/11 07:23:40;;;;;;;12.07;11.37;;;;;;;3.54;95.01;92505.75;5088043;28;20193;-74
2023/01/11 07:26:05;;;;;;;12.60;11.73;;;;;;;3.91;92.97;92519.66;5085314;28;20251;-74
2023/01/11 07:28:31;;;;;;;12.30;11.33;;;;;;;3.89;92.82;92529.44;5088543;28;20204;-75
2023/01/11 07:30:57;;;;;;;11.30;10.60;;;;;;;3.84;93.27;92518.28;5087169;28;20250;-73
2023/01/11 07:33:23;;;;;;;12.07;11.37;;;;;;;4.07;92.76;92523.97;5088610;28;20216;-75
2023/01/11 07:35:48;;;;;;;12.03;11.10;;;;;;;3.77;91.50;92520.22;5088723;28;20225;-76
2023/01/11 07:38:13;;;;;;;11.80;11.10;;;;;;;3.77;93.36;92528.78;5086133;28;20180;-75
2023/01/11 07:40:39;;;;;;;11.97;11.27;;;;;;;3.93;92.80;92512.44;5086706;28;20224;-74
2023/01/11 07:43:13;;;;;;;11.27;10.40;;;;;;;3.24;92.46;92528.53;5086054;28;20181;-76
2023/01/11 07:45:40;;;;;;;11.50;10.80;;;;;;;3.16;94.37;92526.34;5084684;28;20336;-75
2023/01/11 07:48:08;;;;;;;11.90;11.20;;;;;;;3.55;92.67;92534.94;5085626;28;20180;-75
2023/01/11 07:50:35;;;;;;;12.90;12.00;;;;;;;3.69;91.67;92536.16;5088448;28;20247;-74
2023/01/11 07:53:01;;;;;;;12.40;11.70;;;;;;;3.72;91.35;92546.75;5088591;28;20271;-73
2023/01/11 07:55:26;;;;;;;10.47;9.87;;;;;;;3.70;91.29;92546.25;5086007;28;20227;-74
2023/01/11 07:57:54;;;;;;;9.77;9.17;;;;;;;3.66;90.81;92542.56;5087216;28;20193;-73
2023/01/11 08:00:20;;;;;;;10.30;9.70;;;;;;;3.51;91.19;92537.19;5086365;28;20280;-73
2023/01/11 08:02:51;;;;;;;11.03;10.53;;;;;;;3.62;91.27;92551.03;5086804;28;20193;-72
2023/01/11 08:05:17;;;;;;;11.13;10.43;;;;;;;3.65;90.38;92559.06;5086773;28;20264;-73
2023/01/11 08:07:42;;;;;;;10.40;9.77;;;;;;;3.37;91.88;92535.97;5085870;28;20205;-75
2023/01/11 08:10:08;;;;;;;9.60;9.10;;;;;;;3.85;91.29;92569.66;5087723;28;20281;-74
2023/01/11 08:15:17;;;;;;;10.87;10.17;;;;;;;3.61;90.93;92554.63;5085399;28;20254;-74
2023/01/11 08:17:42;;;;;;;10.33;9.93;;;;;;;3.48;90.15;92581.53;5085400;28;20243;-75
2023/01/11 08:20:08;;;;;;;11.73;11.13;;;;;;;3.52;90.70;92585.19;5089039;28;20217;-74
2023/01/11 08:22:34;;;;;;;8.87;8.57;;;;;;;3.28;88.45;92594.91;5089245;28;20199;-75
2023/01/11 08:24:59;;;;;;;9.23;8.80;;;;;;;3.34;89.08;92577.72;5089713;28;20336;-75
2023/01/11 08:27:25;;;;;;;10.27;9.53;;;;;;;3.95;87.99;92608.56;5089579;28;20212;-76
2023/01/11 08:29:50;;;;;;;9.80;9.40;;;;;;;3.83;87.54;92605.25;5091304;28;20224;-75
2023/01/11 08:32:15;;;;;;;8.93;8.53;;;;;;;3.75;89.69;92608.25;5091525;28;20217;-76
2023/01/11 08:34:41;;;;;;;11.37;10.77;;;;;;;3.55;88.67;92602.03;5090771;28;20246;-74
2023/01/11 08:37:06;;;;;;;9.67;9.23;;;;;;;3.67;89.57;92619.00;5090721;28;20197;-75
2023/01/11 08:39:32;;;;;;;10.57;10.07;;;;;;;3.64;90.02;92621.25;5124087;27;20278;-75
2023/01/11 08:41:58;;;;;;;10.07;9.60;;;;;;;3.75;88.26;92608.25;5090664;28;20222;-76
2023/01/11 08:44:23;;;;;;;11.00;10.50;;;;;;;3.90;89.22;92615.44;5088842;28;20292;-76
2023/01/11 08:46:48;;;;;;;9.13;8.73;;;;;;;3.58;88.71;92597.16;5091613;28;20200;-75
2023/01/11 08:49:14;;;;;;;10.10;9.70;;;;;;;3.78;89.32;92612.16;5088925;28;20258;-74
2023/01/11 08:51:40;;;;;;;10.60;10.13;;;;;;;4.11;89.31;92630.19;5088492;28;20231;-76
2023/01/11 08:54:11;;;;;;;10.40;9.77;;;;;;;3.81;88.17;92632.34;5090325;28;20255;-75
2023/01/11 08:56:37;;;;;;;11.80;11.00;;;;;;;3.93;88.46;92630.44;5090393;28;20189;-75
2023/01/11 08:59:04;;;;;;;10.77;9.83;;;;;;;4.04;88.68;92638.09;5089074;28;20205;-74
2023/01/11 09:01:30;;;;;;;10.23;9.60;;;;;;;4.10;87.59;92642.31;5089865;28;20200;-73
2023/01/11 09:03:57;;;;;;;11.63;10.83;;;;;;;4.29;86.63;92643.59;5090217;28;20261;-74
2023/01/11 09:06:22;;;;;;;11.27;10.30;;;;;;;3.85;87.79;92644.53;5088819;28;20193;-74
2023/01/11 09:08:48;;;;;;;8.80;8.30;;;;;;;3.97;86.53;92640.06;5089838;28;20256;-73
2023/01/11 09:13:58;;;;;;;9.67;9.27;;;;;;;4.10;87.64;92644.91;5090081;28;20203;-74
2023/01/11 09:16:23;;;;;;;9.50;9.07;;;;;;;4.43;85.58;92647.41;5090481;28;20192;-75
2023/01/11 09:18:49;;;;;;;10.10;9.70;;;;;;;4.42;84.90;92630.31;5090555;28;20185;-75
2023/01/11 09:21:14;;;;;;;10.07;9.47;;;;;;;4.41;85.39;92649.44;5089447;28;20208;-73
2023/01/11 09:23:40;;;;;;;9.70;9.30;;;;;;;4.19;84.69;92609.88;5089349;28;20218;-75
2023/01/11 09:26:05;;;;;;;10.83;10.13;;;;;;;4.24;84.09;92648.69;5087473;28;20217;-74
2023/01/11 09:28:31;;;;;;;11.30;10.60;;;;;;;4.10;86.40;92631.97;5090146;28;20996;-75
2023/01/11 09:30:56;;;;;;;9.73;9.30;;;;;;;4.61;83.70;92654.84;5087008;28;20221;-75
2023/01/11 09:33:22;;;;;;;9.60;9.20;;;;;;;4.35;85.67;92647.81;5088960;28;20216;-74
2023/01/11 09:35:48;;;;;;;10.30;9.90;;;;;;;4.15;84.85;92629.47;5088271;28;20228;-75
2023/01/11 09:38:14;;;;;;;8.90;8.50;;;;;;;4.22;85.09;92617.16;5090135;28;20263;-75
2023/01/11 09:40:48;;;;;;;9.33;8.93;;;;;;;4.53;84.00;92646.72;5089729;28;20684;-74
2023/01/11 09:43:15;;;;;;;11.00;10.40;;;;;;;4.27;85.82;92648.22;5090280;28;20202;-73
2023/01/11 09:45:45;;;;;;;10.70;10.17;;;;;;;4.18;86.23;92652.25;5089542;28;20216;-73
2023/01/11 09:48:39;;;;;;;10.83;10.23;;;;;;;3.87;86.45;92637.34;5089593;28;20195;-78
2023/01/11 09:51:04;;;;;;;11.30;10.57;;;;;;;4.06;89.09;92636.03;5087867;28;20237;-74
2023/01/11 09:53:37;;;;;;;10.60;9.87;;;;;;;4.22;86.92;92645.56;5088347;28;20224;-74
2023/01/11 09:56:06;;;;;;;10.97;10.23;;;;;;;4.39;88.15;92648.88;5088543;28;20228;-74
2023/01/11 09:58:53;;;;;;;10.33;9.67;;;;;;;4.37;86.96;92653.50;5089714;28;20206;-74
2023/01/11 10:01:48;;;;;;;10.17;9.77;;;;;;;4.06;86.79;92654.13;5102846;28;20297;-74
2023/01/11 10:04:41;;;;;;;11.97;11.40;;;;;;;4.04;86.74;92652.81;5089165;28;20251;-74
2023/01/11 10:07:56;;;;;;;9.80;9.33;;;;;;;3.95;87.93;92657.63;5086865;28;20184;-73
2023/01/11 10:10:49;;;;;;;9.87;9.43;;;;;;;4.21;85.53;92656.94;5054358;28;20237;-74
2023/01/11 10:13:41;;;;;;;11.00;10.50;;;;;;;3.66;86.36;92639.88;5087851;28;20244;-74
2023/01/11 10:16:23;;;;;;;10.13;9.57;;;;;;;4.28;85.61;92660.09;5088473;28;20229;-74
2023/01/11 10:19:15;;;;;;;10.30;9.87;;;;;;;4.34;83.64;92659.16;5089949;28;20196;-72
2023/01/11 10:21:41;;;;;;;11.47;10.87;;;;;;;4.72;83.39;92666.06;5086453;28;20193;-72
2023/01/11 10:24:20;;;;;;;10.20;9.70;;;;;;;4.34;82.64;92653.97;5086285;28;20239;-72
2023/01/11 10:26:48;;;;;;;9.33;8.93;;;;;;;4.26;81.96;92651.84;5104556;28;20199;-71
2023/01/11 10:30:05;;;;;;;10.17;9.67;;;;;;;3.89;83.49;92657.78;5121973;27;20233;-72
2023/01/11 10:35:28;;;;;;;9.70;9.13;;;;;;;4.48;83.13;92654.44;5087400;28;20292;-74
2023/01/11 10:41:03;;;;;;;11.20;10.47;;;;;;;4.65;81.47;92639.63;5088098;28;20292;-74
2023/01/11 10:43:32;;;;;;;10.00;9.30;;;;;;;4.64;81.10;92663.91;5071801;28;20195;-74
2023/01/11 10:46:09;;;;;;;10.20;9.80;;;;;;;4.37;82.34;92652.75;5087856;28;20257;-75
2023/01/11 10:48:44;;;;;;;9.93;9.53;;;;;;;4.45;80.84;92655.69;5086519;28;20180;-74
2023/01/11 10:51:23;;;;;;;10.50;9.90;;;;;;;4.65;82.13;92653.31;5088000;28;20232;-73
2023/01/11 10:53:55;;;;;;;11.30;10.60;;;;;;;4.77;81.05;92648.84;5084776;28;20215;-73
2023/01/11 10:56:50;;;;;;;9.60;9.10;;;;;;;4.34;81.48;92643.66;5087678;28;20242;-73
2023/01/11 10:59:49;;;;;;;10.33;9.83;;;;;;;4.33;81.61;92631.75;5119276;28;20262;-74
2023/01/11 11:02:23;;;;;;;17.47;16.00;;;;;;;4.07;84.02;92645.38;5088264;28;20185;-74
2023/01/11 11:04:55;;;;;;;10.60;9.87;;;;;;;4.19;83.32;92640.09;5085460;28;20235;-81
2023/01/11 11:07:33;;;;;;;9.67;9.17;;;;;;;4.16;83.47;92633.59;5088088;28;20195;-82
2023/01/11 11:10:31;;;;;;;9.80;9.37;;;;;;;4.62;81.53;92646.06;5087520;28;20299;-77
2023/01/11 11:13:19;;;;;;;9.77;9.33;;;;;;;4.44;82.13;92637.81;5084632;28;20291;-73
2023/01/11 11:16:23;;;;;;;9.50;9.17;;;;;;;4.81;78.61;92628.41;5088731;28;20247;-82
2023/01/11 11:18:54;;;;;;;9.23;8.93;;;;;;;4.71;81.39;92642.03;5081164;28;20204;-80
2023/01/11 11:21:27;;;;;;;11.97;11.20;;;;;;;4.39;82.07;92641.13;5087081;28;20223;-80
2023/01/11 11:24:00;;;;;;;12.50;11.50;;;;;;;4.63;83.46;92637.28;5085864;28;20251;-74
2023/01/11 11:26:41;;;;;;;11.57;10.73;;;;;;;4.70;83.41;92612.03;5085503;28;20192;-74
2023/01/11 11:29:10;;;;;;;14.17;12.93;;;;;;;4.73;81.90;92645.16;5086740;28;20233;-73
2023/01/11 11:31:42;;;;;;;13.53;12.63;;;;;;;4.65;83.67;92642.22;5086871;28;20221;-72
2023/01/11 11:34:14;;;;;;;10.43;10.03;;;;;;;5.04;81.01;92653.25;5086633;28;20236;-75
2023/01/11 11:36:45;;;;;;;10.47;10.03;;;;;;;4.56;81.84;92649.59;5119660;28;20231;-74
2023/01/11 11:39:29;;;;;;;10.53;10.13;;;;;;;4.58;81.43;92634.66;5087600;28;20284;-77
2023/01/11 11:42:06;;;;;;;9.60;9.10;;;;;;;4.77;82.31;92659.19;5086449;28;20192;-74
2023/01/11 11:44:32;;;;;;;9.70;9.23;;;;;;;4.83;82.21;92650.44;5087788;28;20239;-74
2023/01/11 11:46:58;;;;;;;10.27;9.83;;;;;;;4.75;80.98;92661.22;5087770;28;20758;-76
2023/01/11 11:49:24;;;;;;;10.10;9.70;;;;;;;4.29;82.98;92656.53;5087080;28;20224;-76
2023/01/11 11:51:51;;;;;;;10.93;10.33;;;;;;;4.62;82.19;92669.31;5085931;28;20235;-76
2023/01/11 11:54:28;;;;;;;10.13;9.63;;;;;;;4.51;81.84;92667.63;5085593;28;20262;-74
2023/01/11 11:56:57;;;;;;;10.63;10.03;;;;;;;4.64;81.79;92669.88;5091489;28;20207;-76
2023/01/11 11:59:27;;;;;;;10.13;9.53;;;;;;;4.37;82.50;92663.06;5090920;28;20251;-78
2023/01/11 12:02:00;;;;;;;9.53;8.73;;;;;;;4.24;83.48;92655.66;5090796;28;20298;-78
2023/01/11 12:04:39;;;;;;;10.57;10.10;;;;;;;3.89;83.47;92655.94;5089929;28;20232;-79
2023/01/11 12:07:11;;;;;;;10.20;9.70;;;;;;;3.98;82.23;92669.25;5090307;28;20252;-77